sensor_id;sensor_type;location;lat;lon;timestamp;P1;durP1;ratioP1;P2;durP2;ratioP2
3901;SDS011;1966;49.908;9.156;2022-08-24T00:04:26;8.33;;;6.37;;
3901;SDS011;1966;49.908;9.156;2022-08-24T00:09:25;7.27;;;5.60;;
3901;SDS011;1966;49.908;9.156;2022-08-24T00:14:26;6.20;;;5.50;;
3901;SDS011;1966;49.908;9.156;2022-08-24T00:19:26;9.43;;;6.07;;
3901;SDS011;1966;49.908;9.156;2022-08-24T00:24:26;5.90;;;5.30;;
3901;SDS011;1966;49.908;9.156;2022-08-24T00:29:27;8.80;;;6.57;;
3901;SDS011;1966;49.908;9.156;2022-08-24T00:34:26;7.90;;;6.03;;
3901;SDS011;1966;49.908;9.156;2022-08-24T00:39:27;8.40;;;6.43;;
3901;SDS011;1966;49.908;9.156;2022-08-24T00:44:28;8.73;;;6.23;;
3901;SDS011;1966;49.908;9.156;2022-08-24T00:49:28;7.50;;;6.30;;
3901;SDS011;1966;49.908;9.156;2022-08-24T00:54:29;6.80;;;6.10;;
3901;SDS011;1966;49.908;9.156;2022-08-24T00:59:31;8.87;;;5.93;;
3901;SDS011;1966;49.908;9.156;2022-08-24T01:04:34;7.20;;;5.80;;
3901;SDS011;1966;49.908;9.156;2022-08-24T01:09:34;6.07;;;5.43;;
3901;SDS011;1966;49.908;9.156;2022-08-24T01:14:35;6.10;;;5.57;;
3901;SDS011;1966;49.908;9.156;2022-08-24T01:19:36;7.60;;;5.70;;
3901;SDS011;1966;49.908;9.156;2022-08-24T01:24:37;10.10;;;5.77;;
3901;SDS011;1966;49.908;9.156;2022-08-24T01:29:37;6.80;;;5.77;;
3901;SDS011;1966;49.908;9.156;2022-08-24T01:34:37;5.90;;;5.30;;
3901;SDS011;1966;49.908;9.156;2022-08-24T01:39:39;5.77;;;5.00;;
3901;SDS011;1966;49.908;9.156;2022-08-24T01:44:42;6.27;;;5.67;;
3901;SDS011;1966;49.908;9.156;2022-08-24T01:49:43;8.87;;;5.43;;
3901;SDS011;1966;49.908;9.156;2022-08-24T01:54:44;5.90;;;5.40;;
3901;SDS011;1966;49.908;9.156;2022-08-24T01:59:44;5.23;;;4.73;;
3901;SDS011;1966;49.908;9.156;2022-08-24T02:04:44;5.73;;;5.00;;
3901;SDS011;1966;49.908;9.156;2022-08-24T02:09:45;7.53;;;5.10;;
3901;SDS011;1966;49.908;9.156;2022-08-24T02:14:45;5.27;;;4.60;;
3901;SDS011;1966;49.908;9.156;2022-08-24T02:19:45;6.47;;;5.07;;
3901;SDS011;1966;49.908;9.156;2022-08-24T02:24:46;8.90;;;5.10;;
3901;SDS011;1966;49.908;9.156;2022-08-24T02:29:46;5.77;;;5.17;;
3901;SDS011;1966;49.908;9.156;2022-08-24T02:34:45;8.50;;;5.60;;
3901;SDS011;1966;49.908;9.156;2022-08-24T02:39:46;5.87;;;4.70;;
3901;SDS011;1966;49.908;9.156;2022-08-24T02:44:46;5.83;;;4.50;;
3901;SDS011;1966;49.908;9.156;2022-08-24T02:49:46;5.73;;;4.70;;
3901;SDS011;1966;49.908;9.156;2022-08-24T02:54:47;5.40;;;4.90;;
3901;SDS011;1966;49.908;9.156;2022-08-24T02:59:47;5.03;;;4.50;;
3901;SDS011;1966;49.908;9.156;2022-08-24T03:04:47;4.10;;;3.80;;
3901;SDS011;1966;49.908;9.156;2022-08-24T03:09:48;5.87;;;3.80;;
3901;SDS011;1966;49.908;9.156;2022-08-24T03:14:47;4.40;;;4.00;;
3901;SDS011;1966;49.908;9.156;2022-08-24T03:19:47;4.40;;;4.00;;
3901;SDS011;1966;49.908;9.156;2022-08-24T03:24:48;5.10;;;4.43;;
3901;SDS011;1966;49.908;9.156;2022-08-24T03:29:48;4.93;;;4.30;;
3901;SDS011;1966;49.908;9.156;2022-08-24T03:34:47;8.23;;;4.20;;
3901;SDS011;1966;49.908;9.156;2022-08-24T03:39:48;4.10;;;3.80;;
3901;SDS011;1966;49.908;9.156;2022-08-24T03:44:48;4.20;;;3.80;;
3901;SDS011;1966;49.908;9.156;2022-08-24T03:49:47;5.10;;;3.97;;
3901;SDS011;1966;49.908;9.156;2022-08-24T03:54:48;5.50;;;4.47;;
3901;SDS011;1966;49.908;9.156;2022-08-24T03:59:48;4.63;;;4.23;;
3901;SDS011;1966;49.908;9.156;2022-08-24T04:04:48;4.73;;;4.20;;
3901;SDS011;1966;49.908;9.156;2022-08-24T04:09:49;5.57;;;4.17;;
3901;SDS011;1966;49.908;9.156;2022-08-24T04:14:49;5.50;;;4.30;;
3901;SDS011;1966;49.908;9.156;2022-08-24T04:19:49;5.80;;;3.50;;
3901;SDS011;1966;49.908;9.156;2022-08-24T04:24:59;4.10;;;3.70;;
3901;SDS011;1966;49.908;9.156;2022-08-24T04:29:59;5.03;;;4.20;;
3901;SDS011;1966;49.908;9.156;2022-08-24T04:34:58;4.40;;;4.03;;
3901;SDS011;1966;49.908;9.156;2022-08-24T04:39:59;7.73;;;3.77;;
3901;SDS011;1966;49.908;9.156;2022-08-24T04:45:00;4.50;;;3.90;;
3901;SDS011;1966;49.908;9.156;2022-08-24T04:50:00;4.97;;;4.00;;
3901;SDS011;1966;49.908;9.156;2022-08-24T04:55:01;6.87;;;3.77;;
3901;SDS011;1966;49.908;9.156;2022-08-24T05:00:01;7.83;;;3.63;;
3901;SDS011;1966;49.908;9.156;2022-08-24T05:05:00;4.20;;;3.80;;
3901;SDS011;1966;49.908;9.156;2022-08-24T05:10:02;4.40;;;4.00;;
3901;SDS011;1966;49.908;9.156;2022-08-24T05:15:01;11.00;;;3.90;;
3901;SDS011;1966;49.908;9.156;2022-08-24T05:20:01;6.47;;;4.30;;
3901;SDS011;1966;49.908;9.156;2022-08-24T05:25:03;5.43;;;3.97;;
3901;SDS011;1966;49.908;9.156;2022-08-24T05:30:03;5.87;;;4.07;;
3901;SDS011;1966;49.908;9.156;2022-08-24T05:35:04;5.63;;;4.27;;
3901;SDS011;1966;49.908;9.156;2022-08-24T05:40:07;6.70;;;5.30;;
3901;SDS011;1966;49.908;9.156;2022-08-24T05:45:07;7.07;;;5.30;;
3901;SDS011;1966;49.908;9.156;2022-08-24T05:50:07;6.00;;;5.10;;
3901;SDS011;1966;49.908;9.156;2022-08-24T05:55:09;7.30;;;5.03;;
3901;SDS011;1966;49.908;9.156;2022-08-24T06:00:09;6.20;;;5.60;;
3901;SDS011;1966;49.908;9.156;2022-08-24T06:05:09;7.30;;;4.90;;
3901;SDS011;1966;49.908;9.156;2022-08-24T06:10:11;5.17;;;4.30;;
3901;SDS011;1966;49.908;9.156;2022-08-24T06:15:10;5.70;;;4.93;;
3901;SDS011;1966;49.908;9.156;2022-08-24T06:20:10;6.20;;;4.77;;
3901;SDS011;1966;49.908;9.156;2022-08-24T06:25:11;6.07;;;5.00;;
3901;SDS011;1966;49.908;9.156;2022-08-24T06:30:28;6.00;;;4.67;;
3901;SDS011;1966;49.908;9.156;2022-08-24T06:35:28;8.50;;;4.60;;
3901;SDS011;1966;49.908;9.156;2022-08-24T06:40:29;5.90;;;5.40;;
3901;SDS011;1966;49.908;9.156;2022-08-24T06:45:28;5.33;;;4.80;;
3901;SDS011;1966;49.908;9.156;2022-08-24T06:50:28;6.40;;;4.80;;
3901;SDS011;1966;49.908;9.156;2022-08-24T06:55:29;7.87;;;4.93;;
3901;SDS011;1966;49.908;9.156;2022-08-24T07:00:29;8.20;;;4.37;;
3901;SDS011;1966;49.908;9.156;2022-08-24T07:05:29;8.33;;;4.83;;
3901;SDS011;1966;49.908;9.156;2022-08-24T07:10:30;6.87;;;4.33;;
3901;SDS011;1966;49.908;9.156;2022-08-24T07:15:30;5.13;;;4.60;;
3901;SDS011;1966;49.908;9.156;2022-08-24T07:20:30;4.50;;;4.10;;
3901;SDS011;1966;49.908;9.156;2022-08-24T07:25:31;11.47;;;5.53;;
3901;SDS011;1966;49.908;9.156;2022-08-24T07:30:31;5.07;;;4.57;;
3901;SDS011;1966;49.908;9.156;2022-08-24T07:35:31;5.60;;;4.80;;
3901;SDS011;1966;49.908;9.156;2022-08-24T07:40:32;8.23;;;4.27;;
3901;SDS011;1966;49.908;9.156;2022-08-24T07:45:32;4.60;;;4.20;;
3901;SDS011;1966;49.908;9.156;2022-08-24T07:50:32;5.87;;;4.47;;
3901;SDS011;1966;49.908;9.156;2022-08-24T07:55:33;6.37;;;4.47;;
3901;SDS011;1966;49.908;9.156;2022-08-24T08:00:33;7.60;;;4.33;;
3901;SDS011;1966;49.908;9.156;2022-08-24T08:05:36;7.43;;;4.20;;
3901;SDS011;1966;49.908;9.156;2022-08-24T08:10:38;12.40;;;4.70;;
3901;SDS011;1966;49.908;9.156;2022-08-24T08:15:37;12.67;;;4.43;;
3901;SDS011;1966;49.908;9.156;2022-08-24T08:20:37;9.53;;;4.43;;
3901;SDS011;1966;49.908;9.156;2022-08-24T08:25:39;5.00;;;4.50;;
3901;SDS011;1966;49.908;9.156;2022-08-24T08:30:38;4.80;;;4.00;;
3901;SDS011;1966;49.908;9.156;2022-08-24T08:35:39;4.83;;;4.17;;
3901;SDS011;1966;49.908;9.156;2022-08-24T08:40:41;4.90;;;3.83;;
3901;SDS011;1966;49.908;9.156;2022-08-24T08:46:01;4.80;;;3.80;;
3901;SDS011;1966;49.908;9.156;2022-08-24T08:51:15;6.97;;;3.70;;
3901;SDS011;1966;49.908;9.156;2022-08-24T08:56:21;3.67;;;3.30;;
3901;SDS011;1966;49.908;9.156;2022-08-24T09:01:26;6.37;;;3.80;;
3901;SDS011;1966;49.908;9.156;2022-08-24T09:06:41;12.70;;;4.17;;
3901;SDS011;1966;49.908;9.156;2022-08-24T09:11:47;3.23;;;2.90;;
3901;SDS011;1966;49.908;9.156;2022-08-24T09:16:53;12.90;;;3.63;;
3901;SDS011;1966;49.908;9.156;2022-08-24T09:21:59;7.83;;;3.10;;
3901;SDS011;1966;49.908;9.156;2022-08-24T09:27:05;4.00;;;3.70;;
3901;SDS011;1966;49.908;9.156;2022-08-24T09:32:15;3.50;;;3.03;;
3901;SDS011;1966;49.908;9.156;2022-08-24T09:37:31;4.10;;;3.17;;
3901;SDS011;1966;49.908;9.156;2022-08-24T09:42:50;5.57;;;3.40;;
3901;SDS011;1966;49.908;9.156;2022-08-24T09:48:12;7.63;;;3.17;;
3901;SDS011;1966;49.908;9.156;2022-08-24T09:53:34;9.23;;;3.67;;
3901;SDS011;1966;49.908;9.156;2022-08-24T09:58:44;3.70;;;3.13;;
3901;SDS011;1966;49.908;9.156;2022-08-24T10:03:50;8.60;;;3.20;;
3901;SDS011;1966;49.908;9.156;2022-08-24T10:09:07;3.97;;;3.00;;
3901;SDS011;1966;49.908;9.156;2022-08-24T10:14:14;3.37;;;3.10;;
3901;SDS011;1966;49.908;9.156;2022-08-24T10:19:17;3.47;;;3.17;;
3901;SDS011;1966;49.908;9.156;2022-08-24T10:24:32;3.37;;;2.77;;
3901;SDS011;1966;49.908;9.156;2022-08-24T10:29:41;5.97;;;2.90;;
3901;SDS011;1966;49.908;9.156;2022-08-24T10:34:47;3.20;;;3.00;;
3901;SDS011;1966;49.908;9.156;2022-08-24T10:40:06;3.50;;;3.20;;
3901;SDS011;1966;49.908;9.156;2022-08-24T10:45:19;6.47;;;2.33;;
3901;SDS011;1966;49.908;9.156;2022-08-24T10:50:25;2.95;;;2.50;;
3901;SDS011;1966;49.908;9.156;2022-08-24T10:55:27;2.88;;;2.30;;
3901;SDS011;1966;49.908;9.156;2022-08-24T11:00:29;4.22;;;2.92;;
3901;SDS011;1966;49.908;9.156;2022-08-24T11:05:29;2.92;;;2.50;;
3901;SDS011;1966;49.908;9.156;2022-08-24T11:10:34;2.45;;;2.30;;
3901;SDS011;1966;49.908;9.156;2022-08-24T11:15:35;2.40;;;2.20;;
3901;SDS011;1966;49.908;9.156;2022-08-24T11:20:45;2.25;;;2.15;;
3901;SDS011;1966;49.908;9.156;2022-08-24T11:25:51;8.00;;;2.60;;
3901;SDS011;1966;49.908;9.156;2022-08-24T11:30:52;2.60;;;2.40;;
3901;SDS011;1966;49.908;9.156;2022-08-24T11:35:53;3.63;;;3.33;;
3901;SDS011;1966;49.908;9.156;2022-08-24T11:40:54;2.30;;;2.20;;
3901;SDS011;1966;49.908;9.156;2022-08-24T11:46:10;5.65;;;2.50;;
3901;SDS011;1966;49.908;9.156;2022-08-24T11:51:14;2.40;;;2.20;;
3901;SDS011;1966;49.908;9.156;2022-08-24T11:56:17;2.65;;;2.45;;
3901;SDS011;1966;49.908;9.156;2022-08-24T12:01:22;2.97;;;2.60;;
3901;SDS011;1966;49.908;9.156;2022-08-24T12:06:26;2.67;;;2.30;;
3901;SDS011;1966;49.908;9.156;2022-08-24T12:11:31;2.78;;;2.50;;
3901;SDS011;1966;49.908;9.156;2022-08-24T12:16:37;2.85;;;2.65;;
3901;SDS011;1966;49.908;9.156;2022-08-24T12:21:40;3.10;;;2.80;;
3901;SDS011;1966;49.908;9.156;2022-08-24T12:26:43;4.97;;;3.20;;
3901;SDS011;1966;49.908;9.156;2022-08-24T12:31:46;4.25;;;2.95;;
3901;SDS011;1966;49.908;9.156;2022-08-24T12:36:53;3.42;;;3.13;;
3901;SDS011;1966;49.908;9.156;2022-08-24T12:41:57;3.33;;;2.60;;
3901;SDS011;1966;49.908;9.156;2022-08-24T12:47:00;3.03;;;2.80;;
3901;SDS011;1966;49.908;9.156;2022-08-24T12:52:12;2.75;;;2.55;;
3901;SDS011;1966;49.908;9.156;2022-08-24T12:57:22;6.07;;;2.90;;
3901;SDS011;1966;49.908;9.156;2022-08-24T13:02:31;6.35;;;2.88;;
3901;SDS011;1966;49.908;9.156;2022-08-24T13:07:37;2.60;;;2.40;;
3901;SDS011;1966;49.908;9.156;2022-08-24T13:12:54;8.23;;;2.55;;
3901;SDS011;1966;49.908;9.156;2022-08-24T13:23:22;2.08;;;1.98;;
3901;SDS011;1966;49.908;9.156;2022-08-24T13:33:46;1.70;;;1.60;;
3901;SDS011;1966;49.908;9.156;2022-08-24T13:38:56;5.80;;;1.95;;
3901;SDS011;1966;49.908;9.156;2022-08-24T13:43:58;1.90;;;1.80;;
3901;SDS011;1966;49.908;9.156;2022-08-24T13:49:02;2.38;;;2.17;;
3901;SDS011;1966;49.908;9.156;2022-08-24T13:54:09;4.10;;;2.40;;
3901;SDS011;1966;49.908;9.156;2022-08-24T13:59:12;2.97;;;2.13;;
3901;SDS011;1966;49.908;9.156;2022-08-24T14:04:17;3.50;;;3.20;;
3901;SDS011;1966;49.908;9.156;2022-08-24T14:09:29;4.25;;;2.60;;
3901;SDS011;1966;49.908;9.156;2022-08-24T14:14:39;2.20;;;2.10;;
3901;SDS011;1966;49.908;9.156;2022-08-24T14:19:46;2.42;;;2.10;;
3901;SDS011;1966;49.908;9.156;2022-08-24T14:24:51;1.92;;;1.83;;
3901;SDS011;1966;49.908;9.156;2022-08-24T14:30:01;2.13;;;2.03;;
3901;SDS011;1966;49.908;9.156;2022-08-24T14:35:30;4.93;;;2.13;;
3901;SDS011;1966;49.908;9.156;2022-08-24T14:40:32;1.85;;;1.75;;
3901;SDS011;1966;49.908;9.156;2022-08-24T14:45:34;3.92;;;2.00;;
3901;SDS011;1966;49.908;9.156;2022-08-24T14:50:38;2.30;;;1.95;;
3901;SDS011;1966;49.908;9.156;2022-08-24T14:55:43;2.25;;;1.80;;
3901;SDS011;1966;49.908;9.156;2022-08-24T15:01:02;13.02;;;2.45;;
3901;SDS011;1966;49.908;9.156;2022-08-24T15:06:06;2.10;;;1.98;;
3901;SDS011;1966;49.908;9.156;2022-08-24T15:11:10;2.78;;;2.33;;
3901;SDS011;1966;49.908;9.156;2022-08-24T15:16:11;2.80;;;2.60;;
3901;SDS011;1966;49.908;9.156;2022-08-24T15:21:16;2.28;;;2.13;;
3901;SDS011;1966;49.908;9.156;2022-08-24T15:26:25;2.70;;;2.50;;
3901;SDS011;1966;49.908;9.156;2022-08-24T15:31:27;2.25;;;2.05;;
3901;SDS011;1966;49.908;9.156;2022-08-24T15:36:27;3.58;;;2.38;;
3901;SDS011;1966;49.908;9.156;2022-08-24T15:41:29;1.90;;;1.80;;
3901;SDS011;1966;49.908;9.156;2022-08-24T15:46:30;2.03;;;1.83;;
3901;SDS011;1966;49.908;9.156;2022-08-24T15:51:34;1.80;;;1.67;;
3901;SDS011;1966;49.908;9.156;2022-08-24T15:56:40;2.30;;;2.10;;
3901;SDS011;1966;49.908;9.156;2022-08-24T16:01:42;2.83;;;2.10;;
3901;SDS011;1966;49.908;9.156;2022-08-24T16:06:58;1.73;;;1.60;;
3901;SDS011;1966;49.908;9.156;2022-08-24T16:12:00;2.95;;;1.92;;
3901;SDS011;1966;49.908;9.156;2022-08-24T16:17:16;2.50;;;2.03;;
3901;SDS011;1966;49.908;9.156;2022-08-24T16:22:24;2.15;;;1.90;;
3901;SDS011;1966;49.908;9.156;2022-08-24T16:27:25;2.40;;;2.30;;
3901;SDS011;1966;49.908;9.156;2022-08-24T16:32:51;2.08;;;1.98;;
3901;SDS011;1966;49.908;9.156;2022-08-24T16:37:51;2.15;;;2.05;;
3901;SDS011;1966;49.908;9.156;2022-08-24T16:42:52;3.50;;;2.30;;
3901;SDS011;1966;49.908;9.156;2022-08-24T16:47:55;2.70;;;2.50;;
3901;SDS011;1966;49.908;9.156;2022-08-24T16:52:54;5.30;;;2.20;;
3901;SDS011;1966;49.908;9.156;2022-08-24T16:57:54;4.43;;;2.47;;
3901;SDS011;1966;49.908;9.156;2022-08-24T17:02:55;6.63;;;2.20;;
3901;SDS011;1966;49.908;9.156;2022-08-24T17:07:56;2.33;;;2.13;;
3901;SDS011;1966;49.908;9.156;2022-08-24T17:12:56;3.03;;;2.23;;
3901;SDS011;1966;49.908;9.156;2022-08-24T17:17:59;4.27;;;2.60;;
3901;SDS011;1966;49.908;9.156;2022-08-24T17:23:00;3.20;;;2.87;;
3901;SDS011;1966;49.908;9.156;2022-08-24T17:28:00;9.67;;;6.20;;
3901;SDS011;1966;49.908;9.156;2022-08-24T17:33:01;8.63;;;6.33;;
3901;SDS011;1966;49.908;9.156;2022-08-24T17:38:02;10.40;;;7.90;;
3901;SDS011;1966;49.908;9.156;2022-08-24T17:43:02;25.57;;;15.23;;
3901;SDS011;1966;49.908;9.156;2022-08-24T17:48:03;25.00;;;15.80;;
3901;SDS011;1966;49.908;9.156;2022-08-24T17:53:03;17.20;;;10.93;;
3901;SDS011;1966;49.908;9.156;2022-08-24T17:58:03;7.00;;;5.33;;
3901;SDS011;1966;49.908;9.156;2022-08-24T18:03:04;6.33;;;4.47;;
3901;SDS011;1966;49.908;9.156;2022-08-24T18:08:03;10.60;;;6.20;;
3901;SDS011;1966;49.908;9.156;2022-08-24T18:13:04;7.27;;;5.00;;
3901;SDS011;1966;49.908;9.156;2022-08-24T18:18:05;14.57;;;8.77;;
3901;SDS011;1966;49.908;9.156;2022-08-24T18:23:05;19.20;;;10.87;;
3901;SDS011;1966;49.908;9.156;2022-08-24T18:28:05;17.83;;;11.60;;
3901;SDS011;1966;49.908;9.156;2022-08-24T18:33:06;13.10;;;8.80;;
3901;SDS011;1966;49.908;9.156;2022-08-24T18:38:06;10.07;;;6.90;;
3901;SDS011;1966;49.908;9.156;2022-08-24T18:43:05;13.43;;;6.87;;
3901;SDS011;1966;49.908;9.156;2022-08-24T18:48:07;11.13;;;5.73;;
3901;SDS011;1966;49.908;9.156;2022-08-24T18:53:06;11.50;;;5.17;;
3901;SDS011;1966;49.908;9.156;2022-08-24T18:58:06;6.80;;;4.83;;
3901;SDS011;1966;49.908;9.156;2022-08-24T19:03:07;4.80;;;4.30;;
3901;SDS011;1966;49.908;9.156;2022-08-24T19:08:07;5.50;;;4.47;;
3901;SDS011;1966;49.908;9.156;2022-08-24T19:13:08;6.53;;;4.10;;
3901;SDS011;1966;49.908;9.156;2022-08-24T19:18:12;8.60;;;3.70;;
3901;SDS011;1966;49.908;9.156;2022-08-24T19:23:15;6.57;;;4.23;;
3901;SDS011;1966;49.908;9.156;2022-08-24T19:28:15;4.47;;;3.90;;
3901;SDS011;1966;49.908;9.156;2022-08-24T19:33:18;8.33;;;3.70;;
3901;SDS011;1966;49.908;9.156;2022-08-24T19:38:19;3.90;;;3.60;;
3901;SDS011;1966;49.908;9.156;2022-08-24T19:43:19;6.37;;;4.43;;
3901;SDS011;1966;49.908;9.156;2022-08-24T19:48:20;6.63;;;3.70;;
3901;SDS011;1966;49.908;9.156;2022-08-24T19:53:20;5.37;;;4.30;;
3901;SDS011;1966;49.908;9.156;2022-08-24T19:58:21;4.03;;;3.63;;
3901;SDS011;1966;49.908;9.156;2022-08-24T20:03:23;6.73;;;3.73;;
3901;SDS011;1966;49.908;9.156;2022-08-24T20:08:23;4.57;;;3.93;;
3901;SDS011;1966;49.908;9.156;2022-08-24T20:13:23;5.20;;;3.70;;
3901;SDS011;1966;49.908;9.156;2022-08-24T20:18:25;6.07;;;4.67;;
3901;SDS011;1966;49.908;9.156;2022-08-24T20:23:29;6.40;;;3.70;;
3901;SDS011;1966;49.908;9.156;2022-08-24T20:28:29;4.77;;;4.03;;
3901;SDS011;1966;49.908;9.156;2022-08-24T20:33:31;9.80;;;4.20;;
3901;SDS011;1966;49.908;9.156;2022-08-24T20:38:31;7.53;;;4.00;;
3901;SDS011;1966;49.908;9.156;2022-08-24T20:43:31;4.13;;;3.40;;
3901;SDS011;1966;49.908;9.156;2022-08-24T20:48:33;7.00;;;4.30;;
3901;SDS011;1966;49.908;9.156;2022-08-24T20:53:32;7.20;;;4.00;;
3901;SDS011;1966;49.908;9.156;2022-08-24T20:58:32;3.83;;;3.43;;
3901;SDS011;1966;49.908;9.156;2022-08-24T21:03:33;6.00;;;3.70;;
3901;SDS011;1966;49.908;9.156;2022-08-24T21:08:34;4.23;;;3.83;;
3901;SDS011;1966;49.908;9.156;2022-08-24T21:13:34;4.10;;;3.80;;
3901;SDS011;1966;49.908;9.156;2022-08-24T21:18:35;4.10;;;3.70;;
3901;SDS011;1966;49.908;9.156;2022-08-24T21:23:35;10.43;;;3.47;;
3901;SDS011;1966;49.908;9.156;2022-08-24T21:28:34;6.00;;;3.50;;
3901;SDS011;1966;49.908;9.156;2022-08-24T21:33:36;4.40;;;4.00;;
3901;SDS011;1966;49.908;9.156;2022-08-24T21:38:53;5.03;;;3.70;;
3901;SDS011;1966;49.908;9.156;2022-08-24T21:43:53;4.40;;;3.97;;
3901;SDS011;1966;49.908;9.156;2022-08-24T21:48:54;3.67;;;3.37;;
3901;SDS011;1966;49.908;9.156;2022-08-24T21:53:54;4.50;;;4.10;;
3901;SDS011;1966;49.908;9.156;2022-08-24T21:58:53;5.43;;;4.20;;
3901;SDS011;1966;49.908;9.156;2022-08-24T22:03:55;7.50;;;4.40;;
3901;SDS011;1966;49.908;9.156;2022-08-24T22:08:55;4.23;;;3.83;;
3901;SDS011;1966;49.908;9.156;2022-08-24T22:13:55;4.87;;;4.20;;
3901;SDS011;1966;49.908;9.156;2022-08-24T22:18:56;6.80;;;3.80;;
3901;SDS011;1966;49.908;9.156;2022-08-24T22:23:57;3.83;;;3.53;;
3901;SDS011;1966;49.908;9.156;2022-08-24T22:28:56;5.10;;;4.60;;
3901;SDS011;1966;49.908;9.156;2022-08-24T22:33:59;6.03;;;4.00;;
3901;SDS011;1966;49.908;9.156;2022-08-24T22:38:59;7.60;;;6.03;;
3901;SDS011;1966;49.908;9.156;2022-08-24T22:43:58;7.90;;;6.80;;
3901;SDS011;1966;49.908;9.156;2022-08-24T22:49:17;8.47;;;6.97;;
3901;SDS011;1966;49.908;9.156;2022-08-24T22:54:17;10.33;;;7.50;;
3901;SDS011;1966;49.908;9.156;2022-08-24T22:59:18;8.37;;;7.47;;
3901;SDS011;1966;49.908;9.156;2022-08-24T23:04:21;9.20;;;6.67;;
3901;SDS011;1966;49.908;9.156;2022-08-24T23:09:21;12.50;;;6.90;;
3901;SDS011;1966;49.908;9.156;2022-08-24T23:14:21;12.77;;;7.63;;
3901;SDS011;1966;49.908;9.156;2022-08-24T23:19:23;7.60;;;6.70;;
3901;SDS011;1966;49.908;9.156;2022-08-24T23:24:41;8.33;;;6.90;;
3901;SDS011;1966;49.908;9.156;2022-08-24T23:29:41;7.03;;;6.10;;
3901;SDS011;1966;49.908;9.156;2022-08-24T23:34:42;5.40;;;4.90;;
3901;SDS011;1966;49.908;9.156;2022-08-24T23:39:42;5.47;;;4.90;;
3901;SDS011;1966;49.908;9.156;2022-08-24T23:44:42;9.53;;;4.63;;
3901;SDS011;1966;49.908;9.156;2022-08-24T23:49:43;11.50;;;4.83;;
3901;SDS011;1966;49.908;9.156;2022-08-24T23:54:42;9.43;;;6.10;;
3901;SDS011;1966;49.908;9.156;2022-08-24T23:59:42;9.60;;;6.10;;
